createdAt,value
2023-03-23T15:57:58.505Z,99989.00
2023-03-23T16:00:29.622Z,100000.16
2023-03-23T16:03:05.788Z,100004.53
2023-03-23T16:05:33.727Z,100010.31
2023-03-23T16:08:01.118Z,100005.38
2023-03-23T16:10:30.455Z,100020.13
2023-03-23T16:12:57.354Z,100022.47
2023-03-23T16:15:24.333Z,100031.94
2023-03-23T16:17:51.342Z,100028.34
2023-03-23T16:20:22.919Z,100043.63
2023-03-23T16:22:51.856Z,100041.75
2023-03-23T16:25:19.433Z,100049.88
2023-03-23T16:27:52.514Z,100055.03
2023-03-23T16:30:27.422Z,100056.06
2023-03-23T16:32:57.471Z,100041.63
2023-03-23T16:35:25.078Z,100046.03
2023-03-23T16:38:07.843Z,100036.41
2023-03-23T16:40:39.676Z,100040.78
2023-03-23T16:43:08.834Z,100041.19
2023-03-23T16:45:40.019Z,100028.38
2023-03-23T16:48:10.298Z,100044.91
2023-03-23T16:50:38.786Z,100052.63
2023-03-23T16:53:08.109Z,100054.03
2023-03-23T16:55:37.146Z,100045.00
2023-03-23T16:58:16.455Z,100078.19
2023-03-23T17:00:47.941Z,100085.91
2023-03-23T17:03:16.274Z,100089.47
2023-03-23T17:05:45.153Z,100094.66
2023-03-23T17:08:12.436Z,100103.19
2023-03-23T17:10:42.204Z,100096.53
2023-03-23T17:13:09.795Z,100104.06
2023-03-23T17:15:45.133Z,100102.47
2023-03-23T17:18:15.074Z,100121.91
2023-03-23T17:20:43.557Z,100120.59
2023-03-23T17:23:10.755Z,100119.88
2023-03-23T17:25:38.393Z,100111.03
2023-03-23T17:28:07.062Z,100122.47
2023-03-23T17:30:35.498Z,100115.31
2023-03-23T17:33:02.821Z,100124.56
2023-03-23T17:35:29.934Z,100129.56
2023-03-23T17:37:56.796Z,100117.94
2023-03-23T17:40:23.662Z,100133.94
2023-03-23T17:42:50.729Z,100135.91
2023-03-23T17:45:17.858Z,100139.78
2023-03-23T17:47:44.773Z,100160.91
2023-03-23T17:50:12.686Z,100171.50
2023-03-23T17:52:41.663Z,100174.84
2023-03-23T17:55:08.979Z,100173.31
2023-03-23T17:57:36.115Z,100161.81
2023-03-23T18:00:07.782Z,100168.44
2023-03-23T18:02:36.909Z,100155.34
2023-03-23T18:05:06.231Z,100156.81
2023-03-23T18:07:33.243Z,100152.34
2023-03-23T18:10:00.848Z,100150.84
2023-03-23T18:12:28.500Z,100137.97
2023-03-23T18:14:59.002Z,100140.50
2023-03-23T18:17:26.901Z,100148.41
2023-03-23T18:19:54.414Z,100148.47
2023-03-23T18:22:21.839Z,100142.38
2023-03-23T18:24:48.965Z,100148.63
2023-03-23T18:27:16.176Z,100152.75
2023-03-23T18:29:43.534Z,100174.59
2023-03-23T18:32:10.685Z,100185.16
2023-03-23T18:34:41.489Z,100176.91
2023-03-23T18:37:09.645Z,100185.53
2023-03-23T18:39:38.064Z,100189.91
2023-03-23T18:42:06.239Z,100217.94
2023-03-23T18:44:34.796Z,100221.22
2023-03-23T18:47:04.670Z,100228.53
2023-03-23T18:49:33.821Z,100212.94
2023-03-23T18:52:01.957Z,100218.06
2023-03-23T18:54:33.819Z,100225.09
2023-03-23T18:57:05.837Z,100216.25
2023-03-23T18:59:35.039Z,100200.09
2023-03-23T19:02:03.829Z,100198.25
2023-03-23T19:04:33.492Z,100208.75
2023-03-23T19:07:02.276Z,100219.25
2023-03-23T19:09:32.269Z,100219.81
2023-03-23T19:12:00.243Z,100214.19
2023-03-23T19:14:27.674Z,100214.19
2023-03-23T19:16:54.560Z,100200.19
2023-03-23T19:19:22.268Z,100206.09
2023-03-23T19:21:49.142Z,100209.63
2023-03-23T19:24:16.361Z,100214.75
2023-03-23T19:26:45.420Z,100221.50
2023-03-23T19:31:46.692Z,100217.25
2023-03-23T19:34:15.481Z,100220.22
2023-03-23T19:36:48.184Z,100216.44
2023-03-23T19:39:21.778Z,100221.56
2023-03-23T19:41:49.916Z,100223.75
2023-03-23T19:44:17.906Z,100220.00
2023-03-23T19:46:45.490Z,100224.56
2023-03-23T19:49:12.754Z,100217.31
2023-03-23T19:51:40.021Z,100213.56
2023-03-23T19:54:07.891Z,100218.13
2023-03-23T19:56:36.028Z,100210.06
2023-03-23T19:59:04.626Z,100220.84
2023-03-23T20:01:32.943Z,100208.75
2023-03-23T20:04:04.650Z,100213.59
2023-03-23T20:06:31.781Z,100222.22
2023-03-23T20:09:00.149Z,100224.38
2023-03-23T20:11:28.820Z,100226.50
2023-03-23T20:13:56.278Z,100224.91
2023-03-23T20:16:24.203Z,100221.41
2023-03-23T20:18:52.897Z,100223.56
2023-03-23T20:21:22.682Z,100210.13
2023-03-23T20:23:56.237Z,100220.31
2023-03-23T20:26:28.256Z,100210.91
2023-03-23T20:28:55.721Z,100220.31
2023-03-23T20:31:27.101Z,100213.59
2023-03-23T20:34:02.354Z,100207.94
2023-03-23T20:36:37.319Z,100210.34
2023-03-23T20:39:08.103Z,100206.59
2023-03-23T20:41:36.154Z,100201.47
2023-03-23T20:44:05.062Z,100215.19
2023-03-23T20:46:32.425Z,100207.66
2023-03-23T20:49:00.868Z,100197.16
2023-03-23T20:51:28.117Z,100197.16
2023-03-23T20:53:55.674Z,100212.22
2023-03-23T20:56:24.363Z,100212.22
2023-03-23T20:58:51.842Z,100211.13
2023-03-23T21:01:21.607Z,100208.69
2023-03-23T21:03:52.074Z,100207.09
2023-03-23T21:06:20.249Z,100218.91
2023-03-23T21:08:47.425Z,100229.13
2023-03-23T21:11:19.498Z,100217.03
2023-03-23T21:13:47.227Z,100221.06
2023-03-23T21:16:15.026Z,100214.88
2023-03-23T21:18:42.412Z,100221.59
2023-03-23T21:21:11.469Z,100218.38
2023-03-23T21:23:47.190Z,100208.41
2023-03-23T21:26:16.793Z,100213.00
2023-03-23T21:28:44.976Z,100192.03
2023-03-23T21:31:13.439Z,100191.78
2023-03-23T21:33:41.107Z,100176.16
2023-03-23T21:36:08.222Z,100178.59
2023-03-23T21:38:35.403Z,100174.84
2023-03-23T21:41:10.551Z,100177.00
2023-03-23T21:43:40.832Z,100181.03
2023-03-23T21:46:09.829Z,100169.75
2023-03-23T21:48:38.761Z,100167.63
2023-03-23T21:51:13.459Z,100172.44
2023-03-23T21:53:42.106Z,100174.56
2023-03-23T21:56:11.590Z,100177.00
2023-03-23T21:58:38.647Z,100170.81
2023-03-23T22:01:08.202Z,100178.63
2023-03-23T22:03:35.762Z,100164.66
2023-03-23T22:06:28.156Z,100178.09
2023-03-23T22:08:56.175Z,100168.69
2023-03-23T22:11:27.791Z,100180.75
2023-03-23T22:13:57.312Z,100158.44
2023-03-23T22:16:25.430Z,100163.56
2023-03-23T22:18:55.409Z,100162.97
2023-03-23T22:21:27.535Z,100161.91
2023-03-23T22:23:59.270Z,100150.06
2023-03-23T22:26:27.855Z,100159.72
2023-03-23T22:28:56.165Z,100146.81
2023-03-23T22:31:28.650Z,100147.31
2023-03-23T22:33:57.218Z,100153.47
2023-03-23T22:36:26.777Z,100143.00
2023-03-23T22:38:55.436Z,100142.72
2023-03-23T22:41:30.907Z,100148.09
2023-03-23T22:43:57.849Z,100141.09
2023-03-23T22:46:25.153Z,100139.22
2023-03-23T22:48:52.274Z,100141.88
2023-03-23T22:51:21.146Z,100142.41
2023-03-23T22:53:48.439Z,100139.19
2023-03-23T22:56:16.570Z,100134.59
2023-03-23T22:58:44.534Z,100133.53
2023-03-23T23:01:19.146Z,100132.44
2023-03-23T23:03:46.241Z,100128.38
2023-03-23T23:06:15.636Z,100127.84
2023-03-23T23:08:43.671Z,100112.22
2023-03-23T23:11:16.177Z,100114.09
2023-03-23T23:13:43.471Z,100121.03
2023-03-23T23:16:12.141Z,100113.78
2023-03-23T23:18:40.433Z,100113.50
2023-03-23T23:21:12.536Z,100111.59
2023-03-23T23:23:39.762Z,100110.78
2023-03-23T23:26:08.092Z,100115.31
2023-03-23T23:28:36.124Z,100110.47
2023-03-23T23:31:04.151Z,100108.06
2023-03-23T23:33:31.207Z,100100.00
2023-03-23T23:35:58.494Z,100094.09
2023-03-23T23:38:25.977Z,100104.56
2023-03-23T23:40:52.980Z,100097.03
2023-03-23T23:43:19.982Z,100098.91
2023-03-23T23:45:47.193Z,100090.06
2023-03-23T23:48:14.297Z,100086.56
2023-03-23T23:50:41.578Z,100091.66
2023-03-23T23:53:09.946Z,100091.66
2023-03-23T23:55:39.370Z,100086.84
2023-03-23T23:58:06.357Z,100077.47
